createdAt,value
2019-04-23T00:01:25.429Z,97280.11
2019-04-23T00:03:29.737Z,97285.34
2019-04-23T00:06:06.946Z,97270.79
2019-04-23T00:08:37.735Z,97275.16
2019-04-23T00:11:08.806Z,97275.16
2019-04-23T00:13:38.992Z,97271.19
2019-04-23T00:18:42.678Z,97267.83
2019-04-23T00:21:23.538Z,97265.43
2019-04-23T00:23:57.170Z,97263.37
2019-04-23T00:26:34.372Z,97264.97
2019-04-23T00:29:18.996Z,97264.67
2019-04-23T00:31:57.217Z,97256.03
2019-04-23T00:34:26.050Z,97252.05
2019-04-23T00:36:53.239Z,97250.91
2019-04-23T00:39:23.676Z,97250.91
2019-04-23T00:41:58.659Z,97246.14
2019-04-23T00:44:32.515Z,97250.10
2019-04-23T00:46:55.992Z,97250.10
2019-04-23T00:49:30.948Z,97241.11
2019-04-23T00:52:05.858Z,97238.97
2019-04-23T00:54:32.707Z,97233.97
2019-04-23T00:57:07.530Z,97233.97
2019-04-23T00:59:39.092Z,97224.27
2019-04-23T01:02:02.716Z,97227.95
2019-04-23T01:04:40.352Z,97228.87
2019-04-23T01:07:09.586Z,97221.72
2019-04-23T01:09:45.625Z,97221.72
2019-04-23T01:12:15.980Z,97230.64
2019-04-23T01:14:38.620Z,97227.73
2019-04-23T01:17:22.136Z,97230.58
2019-04-23T01:20:06.390Z,97230.58
2019-04-23T01:22:08.583Z,97221.98
2019-04-23T01:24:46.699Z,97214.63
2019-04-23T01:28:00.372Z,97217.10
2019-04-23T01:30:17.908Z,97217.75
2019-04-23T01:32:43.742Z,97218.78
2019-04-23T01:37:58.079Z,97216.77
2019-04-23T01:40:19.111Z,97217.00
2019-04-23T01:47:57.659Z,97202.11
2019-04-23T01:50:38.558Z,97202.11
2019-04-23T01:53:05.635Z,97204.70
2019-04-23T01:55:26.302Z,97195.84
2019-04-23T01:58:18.774Z,97195.84
2019-04-23T02:00:39.163Z,97197.56
2019-04-23T02:03:01.125Z,97192.23
2019-04-23T02:05:35.241Z,97194.89
2019-04-23T02:08:11.120Z,97201.94
2019-04-23T02:13:16.392Z,97198.83
2019-04-23T02:18:15.725Z,97201.76
2019-04-23T02:20:55.182Z,97201.44
2019-04-23T02:26:10.808Z,97202.78
2019-04-23T02:28:49.661Z,97201.31
2019-04-23T02:31:43.088Z,97197.00
2019-04-23T02:34:18.572Z,97197.64
2019-04-23T02:36:11.093Z,97195.22
2019-04-23T02:41:26.578Z,97189.78
2019-04-23T02:44:04.917Z,97184.67
2019-04-23T02:46:17.678Z,97184.75
2019-04-23T02:54:15.914Z,97174.89
2019-04-23T03:04:14.260Z,97184.95
2019-04-23T03:06:41.141Z,97180.65
2019-04-23T03:09:27.757Z,97175.03
2019-04-23T03:19:47.239Z,97173.55
2019-04-23T03:45:20.893Z,97130.42
2019-04-23T03:57:40.260Z,97145.85
2019-04-23T04:05:24.555Z,97137.33
2019-04-23T04:08:04.514Z,97131.53
2019-04-23T04:10:16.646Z,97120.39
2019-04-23T04:13:06.691Z,97118.50
2019-04-23T04:20:35.905Z,97118.77
2019-04-23T04:23:10.683Z,97128.42
2019-04-23T04:25:33.668Z,97132.42
2019-04-23T04:30:41.004Z,97121.40
2019-04-23T04:33:41.339Z,97129.66
2019-04-23T04:35:57.889Z,97129.80
2019-04-23T04:51:34.345Z,97121.49
2019-04-23T04:56:16.754Z,97127.39
2019-04-23T05:01:13.868Z,97115.06
2019-04-23T05:03:36.588Z,97124.30
2019-04-23T05:06:24.689Z,97129.43
2019-04-23T05:16:24.310Z,97118.97
2019-04-23T05:18:58.069Z,97127.25
2019-04-23T05:21:26.924Z,97124.75
2019-04-23T05:23:54.096Z,97119.59
2019-04-23T05:26:26.497Z,97110.89
2019-04-23T05:29:01.943Z,97110.89
2019-04-23T05:31:23.274Z,97105.39
2019-04-23T05:34:02.991Z,97105.13
2019-04-23T05:39:08.988Z,97111.73
2019-04-23T05:41:38.544Z,97107.31
2019-04-23T05:43:59.516Z,97109.50
2019-04-23T05:46:33.770Z,97110.78
2019-04-23T05:49:09.245Z,97106.11
2019-04-23T05:54:09.210Z,97108.81
2019-04-23T06:04:17.658Z,97098.81
2019-04-23T06:06:54.098Z,97105.07
2019-04-23T06:09:14.061Z,97107.36
2019-04-23T06:22:10.665Z,97105.39
2019-04-23T06:24:24.898Z,97099.13
2019-04-23T06:31:50.959Z,97107.31
2019-04-23T06:34:26.524Z,97112.91
2019-04-23T06:36:51.234Z,97112.91
2019-04-23T06:39:23.912Z,97095.31
2019-04-23T06:41:59.215Z,97107.91
2019-04-23T06:44:35.847Z,97109.70
2019-04-23T06:47:03.568Z,97097.52
2019-04-23T06:54:45.932Z,97097.50
2019-04-23T06:57:14.621Z,97089.84
2019-04-23T06:59:39.061Z,97091.91
2019-04-23T07:02:11.835Z,97096.27
2019-04-23T07:04:49.854Z,97093.02
2019-04-23T07:07:37.774Z,97093.02
2019-04-23T07:09:51.640Z,97095.22
2019-04-23T07:12:41.139Z,97090.63
2019-04-23T07:14:59.559Z,97087.23
2019-04-23T07:17:24.944Z,97087.23
2019-04-23T07:19:58.418Z,97086.48
2019-04-23T07:22:46.778Z,97085.95
2019-04-23T07:25:03.080Z,97086.03
2019-04-23T07:27:43.084Z,97089.31
2019-04-23T07:32:36.002Z,97082.37
2019-04-23T07:37:45.119Z,97083.64
2019-04-23T07:43:08.360Z,97069.64
2019-04-23T07:46:10.405Z,97060.57
2019-04-23T07:48:24.298Z,97070.20
2019-04-23T07:50:58.992Z,97070.20
2019-04-23T07:53:40.102Z,97067.36
2019-04-23T07:56:08.710Z,97066.65
2019-04-23T07:58:33.913Z,97068.41
2019-04-23T08:01:11.250Z,97072.33
2019-04-23T08:03:45.188Z,97073.70
2019-04-23T08:06:21.692Z,97056.19
2019-04-23T08:08:43.905Z,97060.49
2019-04-23T08:16:32.993Z,97062.45
2019-04-23T08:21:22.734Z,97058.70
2019-04-23T08:24:16.978Z,97052.36
2019-04-23T08:27:04.617Z,97054.73
2019-04-23T08:29:30.940Z,97070.30
2019-04-23T08:39:43.376Z,97067.55
2019-04-23T08:45:10.732Z,97076.84
2019-04-23T08:49:43.543Z,97068.58
2019-04-23T08:52:14.252Z,97075.25
2019-04-23T08:54:48.427Z,97072.77
2019-04-23T08:57:27.344Z,97072.79
2019-04-23T08:59:44.064Z,97067.42
2019-04-23T09:04:51.569Z,97073.42
2019-04-23T09:07:20.535Z,97073.42
2019-04-23T09:09:51.020Z,97070.62
2019-04-23T09:14:53.854Z,97074.96
2019-04-23T09:17:21.178Z,97080.63
2019-04-23T09:20:07.137Z,97074.91
2019-04-23T09:22:34.685Z,97074.91
2019-04-23T09:24:57.418Z,97067.44
2019-04-23T09:27:31.202Z,97082.03
2019-04-23T09:43:34.577Z,97074.81
2019-04-23T09:46:18.014Z,97062.78
2019-04-23T09:48:51.153Z,97070.53
2019-04-23T09:51:17.352Z,97070.23
2019-04-23T09:53:58.022Z,97070.36
2019-04-23T09:56:19.865Z,97067.22
2019-04-23T09:58:51.427Z,97067.50
2019-04-23T10:01:25.934Z,97072.38
2019-04-23T10:03:50.545Z,97074.55
2019-04-23T10:06:14.541Z,97059.01
2019-04-23T10:08:46.432Z,97058.89
2019-04-23T10:11:11.318Z,97057.64
2019-04-23T10:13:40.914Z,97057.64
2019-04-23T10:16:12.302Z,97058.72
2019-04-23T10:18:41.481Z,97054.84
2019-04-23T10:21:11.192Z,97058.93
2019-04-23T10:23:41.224Z,97058.93
2019-04-23T10:26:10.391Z,97052.00
2019-04-23T10:28:47.759Z,97043.11
2019-04-23T10:31:16.868Z,97047.10
2019-04-23T10:33:46.282Z,97036.14
2019-04-23T10:36:19.438Z,97038.55
2019-04-23T10:38:52.621Z,97050.91
2019-04-23T10:41:18.233Z,97050.91
2019-04-23T10:43:54.358Z,97054.67
2019-04-23T10:47:12.284Z,97049.52
2019-04-23T10:49:53.193Z,97050.37
2019-04-23T10:52:26.110Z,97050.37
2019-04-23T10:54:45.295Z,97044.00
2019-04-23T11:04:57.607Z,97046.13
2019-04-23T11:07:31.360Z,97045.86
2019-04-23T11:10:04.440Z,97042.11
2019-04-23T11:12:44.361Z,97043.17
2019-04-23T11:15:32.438Z,97049.01
2019-04-23T11:17:49.866Z,97048.55
2019-04-23T11:20:30.386Z,97042.94
2019-04-23T11:22:48.081Z,97043.84
2019-04-23T11:28:05.687Z,97046.70
2019-04-23T11:30:36.141Z,97040.65
2019-04-23T11:38:39.410Z,97036.19
2019-04-23T11:40:38.367Z,97041.30
2019-04-23T11:43:14.826Z,97043.35
2019-04-23T11:45:50.670Z,97026.45
2019-04-23T11:51:21.825Z,97041.61
2019-04-23T11:53:24.147Z,97033.93
2019-04-23T11:55:58.972Z,97033.93
2019-04-23T11:58:20.522Z,97038.23
2019-04-23T12:01:34.777Z,97037.04
2019-04-23T12:03:56.913Z,97040.23
2019-04-23T12:06:31.290Z,97027.31
2019-04-23T12:09:18.589Z,97030.52
2019-04-23T12:14:40.526Z,97029.84
2019-04-23T12:17:22.692Z,97028.55
2019-04-23T12:22:18.056Z,97024.73
2019-04-23T12:25:04.102Z,97024.73
2019-04-23T12:40:15.667Z,97009.88
2019-04-23T12:47:53.518Z,97016.79
2019-04-23T12:50:41.868Z,97008.13
2019-04-23T12:52:47.227Z,97010.95
2019-04-23T12:55:23.294Z,97015.14
2019-04-23T12:58:03.421Z,97011.36
2019-04-23T13:00:20.836Z,97013.02
2019-04-23T13:02:52.686Z,97010.80
2019-04-23T13:05:31.873Z,97010.86
2019-04-23T13:07:55.667Z,96990.53
2019-04-23T13:10:28.297Z,96993.11
2019-04-23T13:17:54.201Z,96988.78
2019-04-23T13:20:27.984Z,96986.80
2019-04-23T13:25:47.316Z,96983.93
2019-04-23T13:33:27.960Z,96983.99
2019-04-23T13:38:28.606Z,96977.63
2019-04-23T13:48:20.370Z,96959.76
2019-04-23T13:51:00.210Z,96968.78
2019-04-23T13:56:05.083Z,96968.52
2019-04-23T13:58:39.476Z,96962.33
2019-04-23T14:03:42.868Z,96955.09
2019-04-23T14:06:18.410Z,96958.18
2019-04-23T14:11:21.580Z,96968.06
2019-04-23T14:13:49.629Z,96949.72
2019-04-23T14:18:56.187Z,96955.29
2019-04-23T14:21:20.439Z,96954.05
2019-04-23T14:24:03.420Z,96954.05
2019-04-23T14:26:26.015Z,96947.30
2019-04-23T14:30:05.190Z,96947.62
2019-04-23T14:35:11.471Z,96947.94
2019-04-23T14:37:40.952Z,96938.15
2019-04-23T14:40:23.935Z,96938.15
2019-04-23T14:42:56.170Z,96945.02
2019-04-23T14:48:00.273Z,96944.66
2019-04-23T14:50:32.087Z,96949.28
2019-04-23T14:53:09.752Z,96950.01
2019-04-23T14:58:10.447Z,96949.22
2019-04-23T15:00:41.625Z,96947.22
2019-04-23T15:03:08.453Z,96950.41
2019-04-23T15:05:51.778Z,96941.57
2019-04-23T15:08:15.626Z,96948.73
2019-04-23T15:11:05.001Z,96938.25
2019-04-23T15:13:18.766Z,96941.60
2019-04-23T15:15:48.834Z,96942.59
2019-04-23T15:18:35.345Z,96937.41
2019-04-23T15:21:25.598Z,96949.68
2019-04-23T15:23:51.529Z,96949.68
2019-04-23T15:27:07.800Z,96944.64
2019-04-23T15:28:13.168Z,96942.18
2019-04-23T15:31:10.302Z,96942.31
2019-04-23T15:33:49.142Z,96944.75
2019-04-23T15:38:55.866Z,96947.96
2019-04-23T15:41:15.264Z,96948.58
2019-04-23T15:43:52.086Z,96950.86
2019-04-23T15:46:21.047Z,96949.80
2019-04-23T15:48:57.655Z,96954.22
2019-04-23T15:51:20.141Z,96947.08
2019-04-23T15:53:48.567Z,96944.60
2019-04-23T15:56:33.010Z,96943.94
2019-04-23T15:59:07.580Z,96943.94
2019-04-23T16:03:27.500Z,96946.39
2019-04-23T16:05:57.319Z,96944.57
2019-04-23T16:11:41.182Z,96948.91
2019-04-23T16:14:18.589Z,96943.46
2019-04-23T16:16:39.005Z,96943.46
2019-04-23T16:19:24.470Z,96936.95
2019-04-23T16:31:49.536Z,96936.73
2019-04-23T16:34:29.280Z,96936.73
2019-04-23T16:37:02.154Z,96936.52
2019-04-23T16:39:21.570Z,96928.77
2019-04-23T16:42:02.247Z,96934.20
2019-04-23T16:44:38.171Z,96938.45
2019-04-23T16:49:58.353Z,96929.02
2019-04-23T16:52:09.689Z,96924.27
2019-04-23T16:54:41.628Z,96929.71
2019-04-23T16:57:22.610Z,96917.07
2019-04-23T16:59:48.661Z,96931.56
2019-04-23T17:02:14.801Z,96931.56
2019-04-23T17:07:08.459Z,96926.78
2019-04-23T17:12:16.183Z,96931.19
2019-04-23T17:14:48.045Z,96936.37
2019-04-23T17:17:15.626Z,96932.65
2019-04-23T17:19:47.192Z,96929.37
2019-04-23T17:22:31.279Z,96934.68
2019-04-23T17:24:54.083Z,96937.73
2019-04-23T17:27:24.079Z,96936.67
2019-04-23T17:29:58.869Z,96934.23
2019-04-23T17:32:36.602Z,96937.13
2019-04-23T17:35:17.588Z,96937.13
2019-04-23T17:37:53.759Z,96931.34
2019-04-23T17:40:17.462Z,96941.30
2019-04-23T17:43:00.235Z,96942.06
2019-04-23T17:45:32.372Z,96946.19
2019-04-23T17:51:11.564Z,96950.66
2019-04-23T17:53:29.731Z,96937.84
2019-04-23T17:58:34.198Z,96952.48
2019-04-23T18:03:57.339Z,96959.28
2019-04-23T18:09:02.401Z,96961.53
2019-04-23T18:11:35.769Z,96948.45
2019-04-23T18:16:35.423Z,96957.59
2019-04-23T18:24:54.176Z,96967.17
2019-04-23T18:27:19.137Z,96967.17
2019-04-23T18:29:56.324Z,96969.83
2019-04-23T18:32:47.926Z,96970.49
2019-04-23T18:37:37.599Z,96971.12
2019-04-23T18:40:04.296Z,96972.39
2019-04-23T18:45:20.265Z,96974.13
2019-04-23T18:47:47.507Z,96976.81
2019-04-23T18:50:24.703Z,96987.12
2019-04-23T18:53:00.688Z,96987.55
2019-04-23T18:55:29.506Z,96990.64
2019-04-23T18:57:55.367Z,96986.77
2019-04-23T19:00:24.863Z,97006.14
2019-04-23T19:05:58.686Z,97005.43
2019-04-23T19:11:40.338Z,97014.53
2019-04-23T19:19:11.601Z,97018.25
2019-04-23T19:22:07.136Z,97018.25
2019-04-23T19:24:13.815Z,97017.56
2019-04-23T19:27:03.328Z,97025.64
2019-04-23T19:29:21.295Z,97027.89
2019-04-23T19:31:55.370Z,97022.25
2019-04-23T19:34:37.930Z,97029.07
2019-04-23T19:36:59.426Z,97029.07
2019-04-23T19:47:09.613Z,97025.12
2019-04-23T19:49:36.896Z,97026.29
2019-04-23T19:52:03.170Z,97035.31
2019-04-23T19:54:52.622Z,97037.31
2019-04-23T19:57:11.889Z,97034.62
2019-04-23T19:59:45.035Z,97038.11
2019-04-23T20:02:18.592Z,97035.64
2019-04-23T20:05:00.967Z,97040.91
2019-04-23T20:12:16.401Z,97042.91
2019-04-23T20:14:48.911Z,97038.35
2019-04-23T20:19:48.172Z,97051.81
2019-04-23T20:22:25.592Z,97049.38
2019-04-23T20:30:21.298Z,97047.58
2019-04-23T20:44:43.301Z,97054.09
2019-04-23T20:49:40.184Z,97060.13
2019-04-23T20:54:58.429Z,97064.80
2019-04-23T20:57:31.623Z,97063.73
2019-04-23T21:00:01.637Z,97063.73
2019-04-23T21:05:33.219Z,97065.19
2019-04-23T21:08:22.351Z,97066.84
2019-04-23T21:10:55.592Z,97073.27
2019-04-23T21:13:28.614Z,97075.80
2019-04-23T21:15:45.746Z,97075.80
2019-04-23T21:20:56.150Z,97071.30
2019-04-23T21:23:21.144Z,97070.45
2019-04-23T21:25:50.670Z,97076.88
2019-04-23T21:31:09.027Z,97077.44
2019-04-23T21:36:43.411Z,97087.41
2019-04-23T21:44:13.451Z,97084.28
2019-04-23T21:49:18.072Z,97090.07
2019-04-23T21:54:08.003Z,97090.44
2019-04-23T21:56:42.975Z,97090.34
2019-04-23T21:59:07.057Z,97096.75
2019-04-23T22:01:55.784Z,97098.98
2019-04-23T22:04:35.702Z,97100.43
2019-04-23T22:06:53.626Z,97113.73
2019-04-23T22:09:26.934Z,97112.92
2019-04-23T22:12:03.490Z,97107.56
2019-04-23T22:14:33.790Z,97109.55
2019-04-23T22:17:02.829Z,97110.30
2019-04-23T22:19:38.228Z,97108.48
2019-04-23T22:22:04.001Z,97108.48
2019-04-23T22:24:46.531Z,97114.73
2019-04-23T22:27:12.751Z,97108.72
2019-04-23T22:29:43.557Z,97112.35
2019-04-23T22:32:02.817Z,97120.93
2019-04-23T22:34:50.495Z,97116.36
2019-04-23T22:39:54.189Z,97119.86
2019-04-23T22:42:36.364Z,97123.18
2019-04-23T22:47:13.890Z,97123.58
2019-04-23T22:55:02.395Z,97135.99
2019-04-23T22:57:55.996Z,97130.55
2019-04-23T23:05:56.213Z,97131.04
2019-04-23T23:08:45.880Z,97135.77
2019-04-23T23:16:02.015Z,97142.36
2019-04-23T23:18:22.938Z,97135.17
2019-04-23T23:21:02.157Z,97145.70
2019-04-23T23:23:21.298Z,97145.70
2019-04-23T23:26:02.781Z,97143.23
2019-04-23T23:28:38.069Z,97142.73
2019-04-23T23:33:30.184Z,97147.20
2019-04-23T23:38:47.707Z,97140.48
2019-04-23T23:41:14.123Z,97144.13
2019-04-23T23:43:31.648Z,97151.53
2019-04-23T23:48:41.802Z,97153.29
2019-04-23T23:51:17.052Z,97157.76
2019-04-23T23:58:58.280Z,97154.12
